Terminal Aerodrome Forecast
Issued by NWS Topeka, KS

Home | Current Version | Previous Version | Text Only | Print | Product List | Glossary On
Versions: 1 2 3 4 5 6 7 8 9 10 11 12 13 14 15 16 17 18 19 20
000
FTUS43 KTOP 201740
TAFTOP
TAF
KTOP 201740Z 2018/2118 17017G25KT P6SM FEW030
     FM210300 16016G24KT P6SM SCT030 WS020/19060KT
     FM210700 18015G24KT P6SM BKN015 WS020/19060KT
     FM211300 18014G26KT P6SM BKN015=

USA.gov is the U.S. government's official web portal to all federal, state and local government web resources and services.